sensor_id;sensor_type;location;lat;lon;timestamp;temperature;humidity
63013;DHT22;62113;45.624;11.700;2024-01-16T00:01:17;5.60;59.60
63013;DHT22;62113;45.624;11.700;2024-01-16T00:03:43;5.60;59.80
63013;DHT22;62113;45.624;11.700;2024-01-16T00:06:09;5.60;59.70
63013;DHT22;62113;45.624;11.700;2024-01-16T00:08:35;5.50;59.80
63013;DHT22;62113;45.624;11.700;2024-01-16T00:11:04;5.50;59.90
63013;DHT22;62113;45.624;11.700;2024-01-16T00:13:29;5.50;59.90
63013;DHT22;62113;45.624;11.700;2024-01-16T00:15:55;5.50;59.90
63013;DHT22;62113;45.624;11.700;2024-01-16T00:18:22;5.50;59.90
63013;DHT22;62113;45.624;11.700;2024-01-16T00:20:47;5.50;59.80
63013;DHT22;62113;45.624;11.700;2024-01-16T00:23:13;5.50;59.80
63013;DHT22;62113;45.624;11.700;2024-01-16T00:25:38;5.50;59.90
63013;DHT22;62113;45.624;11.700;2024-01-16T00:28:04;5.50;59.90
63013;DHT22;62113;45.624;11.700;2024-01-16T00:30:29;5.50;59.80
63013;DHT22;62113;45.624;11.700;2024-01-16T00:32:55;5.40;59.80
63013;DHT22;62113;45.624;11.700;2024-01-16T00:35:20;5.40;59.90
63013;DHT22;62113;45.624;11.700;2024-01-16T00:37:46;5.40;60.00
63013;DHT22;62113;45.624;11.700;2024-01-16T00:40:12;5.40;59.90
63013;DHT22;62113;45.624;11.700;2024-01-16T00:42:37;5.30;59.70
63013;DHT22;62113;45.624;11.700;2024-01-16T00:45:03;5.30;60.00
63013;DHT22;62113;45.624;11.700;2024-01-16T00:47:29;5.30;59.90
63013;DHT22;62113;45.624;11.700;2024-01-16T00:49:55;5.30;60.10
63013;DHT22;62113;45.624;11.700;2024-01-16T00:52:20;5.30;60.10
63013;DHT22;62113;45.624;11.700;2024-01-16T00:54:46;5.30;60.30
63013;DHT22;62113;45.624;11.700;2024-01-16T00:57:11;5.30;60.30
63013;DHT22;62113;45.624;11.700;2024-01-16T00:59:37;5.20;60.20
63013;DHT22;62113;45.624;11.700;2024-01-16T01:02:03;5.30;60.30
63013;DHT22;62113;45.624;11.700;2024-01-16T01:04:29;5.30;60.20
63013;DHT22;62113;45.624;11.700;2024-01-16T01:06:54;5.30;60.20
63013;DHT22;62113;45.624;11.700;2024-01-16T01:09:20;5.30;60.30
63013;DHT22;62113;45.624;11.700;2024-01-16T01:11:45;5.30;60.10
63013;DHT22;62113;45.624;11.700;2024-01-16T01:14:11;5.30;60.10
63013;DHT22;62113;45.624;11.700;2024-01-16T01:16:36;5.30;60.00
63013;DHT22;62113;45.624;11.700;2024-01-16T01:19:02;5.30;60.00
63013;DHT22;62113;45.624;11.700;2024-01-16T01:21:28;5.30;60.10
63013;DHT22;62113;45.624;11.700;2024-01-16T01:23:54;5.20;60.20
63013;DHT22;62113;45.624;11.700;2024-01-16T01:26:19;5.20;60.20
63013;DHT22;62113;45.624;11.700;2024-01-16T01:28:45;5.20;60.30
63013;DHT22;62113;45.624;11.700;2024-01-16T01:31:10;5.20;60.30
63013;DHT22;62113;45.624;11.700;2024-01-16T01:33:36;5.20;60.40
63013;DHT22;62113;45.624;11.700;2024-01-16T01:36:02;5.20;60.30
63013;DHT22;62113;45.624;11.700;2024-01-16T01:38:27;5.20;60.40
63013;DHT22;62113;45.624;11.700;2024-01-16T01:40:53;5.20;60.30
63013;DHT22;62113;45.624;11.700;2024-01-16T01:43:22;5.20;60.30
63013;DHT22;62113;45.624;11.700;2024-01-16T01:45:56;5.20;60.20
63013;DHT22;62113;45.624;11.700;2024-01-16T01:48:22;5.20;60.30
63013;DHT22;62113;45.624;11.700;2024-01-16T01:50:48;5.20;60.20
63013;DHT22;62113;45.624;11.700;2024-01-16T01:53:13;5.20;60.20
63013;DHT22;62113;45.624;11.700;2024-01-16T01:55:39;5.20;60.20
63013;DHT22;62113;45.624;11.700;2024-01-16T01:58:04;5.20;60.20
63013;DHT22;62113;45.624;11.700;2024-01-16T02:00:31;5.20;60.10
63013;DHT22;62113;45.624;11.700;2024-01-16T02:02:56;5.10;60.10
63013;DHT22;62113;45.624;11.700;2024-01-16T02:05:22;5.10;60.10
63013;DHT22;62113;45.624;11.700;2024-01-16T02:07:47;5.10;60.30
63013;DHT22;62113;45.624;11.700;2024-01-16T02:10:14;5.10;60.10
63013;DHT22;62113;45.624;11.700;2024-01-16T02:12:39;5.10;60.10
63013;DHT22;62113;45.624;11.700;2024-01-16T02:15:05;5.00;60.10
63013;DHT22;62113;45.624;11.700;2024-01-16T02:17:30;5.10;60.00
63013;DHT22;62113;45.624;11.700;2024-01-16T02:19:56;5.00;60.00
63013;DHT22;62113;45.624;11.700;2024-01-16T02:22:21;5.00;60.00
63013;DHT22;62113;45.624;11.700;2024-01-16T02:24:49;5.00;59.90
63013;DHT22;62113;45.624;11.700;2024-01-16T02:27:15;5.00;59.90
63013;DHT22;62113;45.624;11.700;2024-01-16T02:29:41;5.00;59.90
63013;DHT22;62113;45.624;11.700;2024-01-16T02:32:08;5.00;59.90
63013;DHT22;62113;45.624;11.700;2024-01-16T02:34:33;4.90;59.80
63013;DHT22;62113;45.624;11.700;2024-01-16T02:36:59;4.90;59.80
63013;DHT22;62113;45.624;11.700;2024-01-16T02:39:24;4.90;59.80
63013;DHT22;62113;45.624;11.700;2024-01-16T02:41:50;4.80;59.90
63013;DHT22;62113;45.624;11.700;2024-01-16T02:44:16;4.80;59.90
63013;DHT22;62113;45.624;11.700;2024-01-16T02:46:41;4.80;60.00
63013;DHT22;62113;45.624;11.700;2024-01-16T02:49:07;4.80;60.10
63013;DHT22;62113;45.624;11.700;2024-01-16T02:51:32;4.80;60.10
63013;DHT22;62113;45.624;11.700;2024-01-16T02:53:58;4.70;60.10
63013;DHT22;62113;45.624;11.700;2024-01-16T02:56:24;4.80;60.10
63013;DHT22;62113;45.624;11.700;2024-01-16T02:58:49;4.80;60.10
63013;DHT22;62113;45.624;11.700;2024-01-16T03:01:15;4.70;60.10
63013;DHT22;62113;45.624;11.700;2024-01-16T03:03:41;4.80;60.00
63013;DHT22;62113;45.624;11.700;2024-01-16T03:06:06;4.80;60.00
63013;DHT22;62113;45.624;11.700;2024-01-16T03:08:32;4.80;60.00
63013;DHT22;62113;45.624;11.700;2024-01-16T03:10:57;4.80;60.00
63013;DHT22;62113;45.624;11.700;2024-01-16T03:13:23;4.80;60.20
63013;DHT22;62113;45.624;11.700;2024-01-16T03:15:48;4.70;60.20
63013;DHT22;62113;45.624;11.700;2024-01-16T03:18:14;4.70;60.20
63013;DHT22;62113;45.624;11.700;2024-01-16T03:20:39;4.80;60.20
63013;DHT22;62113;45.624;11.700;2024-01-16T03:23:05;4.80;60.20
63013;DHT22;62113;45.624;11.700;2024-01-16T03:25:30;4.70;60.40
63013;DHT22;62113;45.624;11.700;2024-01-16T03:27:56;4.70;60.20
63013;DHT22;62113;45.624;11.700;2024-01-16T03:30:22;4.70;60.10
63013;DHT22;62113;45.624;11.700;2024-01-16T03:32:47;4.70;60.30
63013;DHT22;62113;45.624;11.700;2024-01-16T03:35:13;4.70;60.10
63013;DHT22;62113;45.624;11.700;2024-01-16T03:37:38;4.70;60.30
63013;DHT22;62113;45.624;11.700;2024-01-16T03:40:04;4.70;60.50
63013;DHT22;62113;45.624;11.700;2024-01-16T03:42:30;4.70;60.60
63013;DHT22;62113;45.624;11.700;2024-01-16T03:44:56;4.70;60.70
63013;DHT22;62113;45.624;11.700;2024-01-16T03:47:22;4.70;60.70
63013;DHT22;62113;45.624;11.700;2024-01-16T03:49:48;4.70;60.90
63013;DHT22;62113;45.624;11.700;2024-01-16T03:52:14;4.70;60.60
63013;DHT22;62113;45.624;11.700;2024-01-16T03:54:39;4.70;60.60
63013;DHT22;62113;45.624;11.700;2024-01-16T03:57:05;4.70;60.40
63013;DHT22;62113;45.624;11.700;2024-01-16T03:59:30;4.70;60.30
63013;DHT22;62113;45.624;11.700;2024-01-16T04:01:56;4.70;60.10
63013;DHT22;62113;45.624;11.700;2024-01-16T04:04:21;4.70;60.20
63013;DHT22;62113;45.624;11.700;2024-01-16T04:06:48;4.70;60.20
63013;DHT22;62113;45.624;11.700;2024-01-16T04:09:13;4.70;60.20
63013;DHT22;62113;45.624;11.700;2024-01-16T04:11:40;4.70;60.30
63013;DHT22;62113;45.624;11.700;2024-01-16T04:14:05;4.60;60.30
63013;DHT22;62113;45.624;11.700;2024-01-16T04:16:30;4.70;60.40
63013;DHT22;62113;45.624;11.700;2024-01-16T04:18:56;4.70;60.30
63013;DHT22;62113;45.624;11.700;2024-01-16T04:21:22;4.70;60.40
63013;DHT22;62113;45.624;11.700;2024-01-16T04:23:47;4.70;60.50
63013;DHT22;62113;45.624;11.700;2024-01-16T04:26:13;4.60;60.50
63013;DHT22;62113;45.624;11.700;2024-01-16T04:28:38;4.70;60.50
63013;DHT22;62113;45.624;11.700;2024-01-16T04:31:04;4.60;60.50
63013;DHT22;62113;45.624;11.700;2024-01-16T04:33:29;4.60;60.50
63013;DHT22;62113;45.624;11.700;2024-01-16T04:35:55;4.60;60.40
63013;DHT22;62113;45.624;11.700;2024-01-16T04:38:21;4.60;60.40
63013;DHT22;62113;45.624;11.700;2024-01-16T04:40:46;4.60;60.40
63013;DHT22;62113;45.624;11.700;2024-01-16T04:43:12;4.60;60.50
63013;DHT22;62113;45.624;11.700;2024-01-16T04:45:37;4.60;60.50
63013;DHT22;62113;45.624;11.700;2024-01-16T04:48:03;4.60;60.60
63013;DHT22;62113;45.624;11.700;2024-01-16T04:50:28;4.60;60.50
63013;DHT22;62113;45.624;11.700;2024-01-16T04:52:57;4.70;60.60
63013;DHT22;62113;45.624;11.700;2024-01-16T04:55:25;4.60;60.60
63013;DHT22;62113;45.624;11.700;2024-01-16T04:57:50;4.60;60.80
63013;DHT22;62113;45.624;11.700;2024-01-16T05:00:16;4.60;60.90
63013;DHT22;62113;45.624;11.700;2024-01-16T05:02:42;4.60;60.90
63013;DHT22;62113;45.624;11.700;2024-01-16T05:05:08;4.70;60.80
63013;DHT22;62113;45.624;11.700;2024-01-16T05:07:34;4.70;60.80
63013;DHT22;62113;45.624;11.700;2024-01-16T05:10:01;4.70;60.80
63013;DHT22;62113;45.624;11.700;2024-01-16T05:12:26;4.70;60.80
63013;DHT22;62113;45.624;11.700;2024-01-16T05:14:52;4.70;60.80
63013;DHT22;62113;45.624;11.700;2024-01-16T05:17:17;4.70;60.70
63013;DHT22;62113;45.624;11.700;2024-01-16T05:19:43;4.70;60.70
63013;DHT22;62113;45.624;11.700;2024-01-16T05:22:09;4.80;60.70
63013;DHT22;62113;45.624;11.700;2024-01-16T05:24:35;4.80;60.60
63013;DHT22;62113;45.624;11.700;2024-01-16T05:27:01;4.80;60.70
63013;DHT22;62113;45.624;11.700;2024-01-16T05:29:26;4.90;60.60
63013;DHT22;62113;45.624;11.700;2024-01-16T05:31:52;4.90;60.50
63013;DHT22;62113;45.624;11.700;2024-01-16T05:34:17;4.90;60.50
63013;DHT22;62113;45.624;11.700;2024-01-16T05:36:43;4.90;60.40
63013;DHT22;62113;45.624;11.700;2024-01-16T05:39:09;4.90;60.40
63013;DHT22;62113;45.624;11.700;2024-01-16T05:41:35;4.90;60.40
63013;DHT22;62113;45.624;11.700;2024-01-16T05:44:01;4.90;60.30
63013;DHT22;62113;45.624;11.700;2024-01-16T05:46:29;4.90;60.20
63013;DHT22;62113;45.624;11.700;2024-01-16T05:48:55;4.90;60.20
63013;DHT22;62113;45.624;11.700;2024-01-16T05:51:20;4.90;60.10
63013;DHT22;62113;45.624;11.700;2024-01-16T05:53:46;4.90;60.10
63013;DHT22;62113;45.624;11.700;2024-01-16T05:56:11;5.00;60.00
63013;DHT22;62113;45.624;11.700;2024-01-16T05:58:37;5.00;59.90
63013;DHT22;62113;45.624;11.700;2024-01-16T06:01:06;4.90;59.90
63013;DHT22;62113;45.624;11.700;2024-01-16T06:03:32;5.00;59.80
63013;DHT22;62113;45.624;11.700;2024-01-16T06:05:58;5.00;59.80
63013;DHT22;62113;45.624;11.700;2024-01-16T06:08:23;4.90;59.90
63013;DHT22;62113;45.624;11.700;2024-01-16T06:10:49;5.00;59.80
63013;DHT22;62113;45.624;11.700;2024-01-16T06:13:14;5.00;59.80
63013;DHT22;62113;45.624;11.700;2024-01-16T06:15:40;5.00;59.70
63013;DHT22;62113;45.624;11.700;2024-01-16T06:18:05;4.90;59.70
63013;DHT22;62113;45.624;11.700;2024-01-16T06:20:31;5.00;59.80
63013;DHT22;62113;45.624;11.700;2024-01-16T06:22:58;5.00;59.70
63013;DHT22;62113;45.624;11.700;2024-01-16T06:25:23;4.90;59.70
63013;DHT22;62113;45.624;11.700;2024-01-16T06:27:49;5.00;59.80
63013;DHT22;62113;45.624;11.700;2024-01-16T06:30:14;5.00;59.70
63013;DHT22;62113;45.624;11.700;2024-01-16T06:32:40;4.90;59.70
63013;DHT22;62113;45.624;11.700;2024-01-16T06:35:05;5.00;59.80
63013;DHT22;62113;45.624;11.700;2024-01-16T06:37:31;5.00;59.60
63013;DHT22;62113;45.624;11.700;2024-01-16T06:39:56;5.00;59.60
63013;DHT22;62113;45.624;11.700;2024-01-16T06:42:22;5.00;59.60
63013;DHT22;62113;45.624;11.700;2024-01-16T06:44:47;5.00;59.60
63013;DHT22;62113;45.624;11.700;2024-01-16T06:47:13;5.00;59.60
63013;DHT22;62113;45.624;11.700;2024-01-16T06:49:38;5.00;59.60
63013;DHT22;62113;45.624;11.700;2024-01-16T06:52:04;5.00;59.60
63013;DHT22;62113;45.624;11.700;2024-01-16T06:54:29;5.00;59.50
63013;DHT22;62113;45.624;11.700;2024-01-16T06:56:55;5.00;59.50
63013;DHT22;62113;45.624;11.700;2024-01-16T06:59:20;5.00;59.50
63013;DHT22;62113;45.624;11.700;2024-01-16T07:01:47;5.10;59.50
63013;DHT22;62113;45.624;11.700;2024-01-16T07:04:12;5.10;59.50
63013;DHT22;62113;45.624;11.700;2024-01-16T07:06:39;5.10;59.50
63013;DHT22;62113;45.624;11.700;2024-01-16T07:09:05;5.20;59.40
63013;DHT22;62113;45.624;11.700;2024-01-16T07:11:30;5.20;59.40
63013;DHT22;62113;45.624;11.700;2024-01-16T07:13:56;5.20;59.40
63013;DHT22;62113;45.624;11.700;2024-01-16T07:16:22;5.20;59.40
63013;DHT22;62113;45.624;11.700;2024-01-16T07:18:48;5.20;59.30
63013;DHT22;62113;45.624;11.700;2024-01-16T07:21:19;5.30;59.30
63013;DHT22;62113;45.624;11.700;2024-01-16T07:23:46;5.30;59.30
63013;DHT22;62113;45.624;11.700;2024-01-16T07:26:12;5.30;59.40
63013;DHT22;62113;45.624;11.700;2024-01-16T07:28:37;5.50;59.30
63013;DHT22;62113;45.624;11.700;2024-01-16T07:31:03;5.60;59.20
63013;DHT22;62113;45.624;11.700;2024-01-16T07:33:29;5.70;59.10
63013;DHT22;62113;45.624;11.700;2024-01-16T07:35:54;5.70;59.10
63013;DHT22;62113;45.624;11.700;2024-01-16T07:38:20;5.80;58.90
63013;DHT22;62113;45.624;11.700;2024-01-16T07:40:45;5.90;58.90
63013;DHT22;62113;45.624;11.700;2024-01-16T07:43:11;6.10;58.80
63013;DHT22;62113;45.624;11.700;2024-01-16T07:45:37;6.20;58.50
63013;DHT22;62113;45.624;11.700;2024-01-16T07:48:02;6.40;58.50
63013;DHT22;62113;45.624;11.700;2024-01-16T07:50:28;6.50;58.30
63013;DHT22;62113;45.624;11.700;2024-01-16T07:52:54;6.70;57.80
63013;DHT22;62113;45.624;11.700;2024-01-16T07:55:19;6.90;57.00
63013;DHT22;62113;45.624;11.700;2024-01-16T07:57:45;7.20;57.10
63013;DHT22;62113;45.624;11.700;2024-01-16T08:00:11;7.30;55.70
63013;DHT22;62113;45.624;11.700;2024-01-16T08:02:37;7.50;55.00
63013;DHT22;62113;45.624;11.700;2024-01-16T08:05:03;7.70;54.70
63013;DHT22;62113;45.624;11.700;2024-01-16T08:07:29;7.80;54.60
63013;DHT22;62113;45.624;11.700;2024-01-16T08:09:54;8.00;53.60
63013;DHT22;62113;45.624;11.700;2024-01-16T08:12:20;8.00;54.10
63013;DHT22;62113;45.624;11.700;2024-01-16T08:14:45;8.10;54.10
63013;DHT22;62113;45.624;11.700;2024-01-16T08:17:11;8.30;54.00
63013;DHT22;62113;45.624;11.700;2024-01-16T08:19:36;8.30;53.90
63013;DHT22;62113;45.624;11.700;2024-01-16T08:22:02;8.50;53.30
63013;DHT22;62113;45.624;11.700;2024-01-16T08:24:28;8.50;52.80
63013;DHT22;62113;45.624;11.700;2024-01-16T08:26:53;8.60;53.10
63013;DHT22;62113;45.624;11.700;2024-01-16T08:29:19;8.70;52.80
63013;DHT22;62113;45.624;11.700;2024-01-16T08:31:44;8.80;53.30
63013;DHT22;62113;45.624;11.700;2024-01-16T08:34:10;9.00;52.50
63013;DHT22;62113;45.624;11.700;2024-01-16T08:36:35;9.10;53.50
63013;DHT22;62113;45.624;11.700;2024-01-16T08:39:01;9.20;53.70
63013;DHT22;62113;45.624;11.700;2024-01-16T08:41:26;9.20;51.90
63013;DHT22;62113;45.624;11.700;2024-01-16T08:43:52;9.30;52.30
63013;DHT22;62113;45.624;11.700;2024-01-16T08:46:18;9.30;52.10
63013;DHT22;62113;45.624;11.700;2024-01-16T08:48:46;9.40;51.50
63013;DHT22;62113;45.624;11.700;2024-01-16T08:51:11;9.40;52.50
63013;DHT22;62113;45.624;11.700;2024-01-16T08:53:37;9.40;52.10
63013;DHT22;62113;45.624;11.700;2024-01-16T08:56:03;9.50;52.60
63013;DHT22;62113;45.624;11.700;2024-01-16T08:58:32;9.50;52.10
63013;DHT22;62113;45.624;11.700;2024-01-16T09:01:02;9.50;52.00
63013;DHT22;62113;45.624;11.700;2024-01-16T09:03:27;9.40;51.30
63013;DHT22;62113;45.624;11.700;2024-01-16T09:05:53;9.30;52.80
63013;DHT22;62113;45.624;11.700;2024-01-16T09:08:18;9.20;54.20
63013;DHT22;62113;45.624;11.700;2024-01-16T09:10:44;9.30;53.90
63013;DHT22;62113;45.624;11.700;2024-01-16T09:13:09;9.50;53.70
63013;DHT22;62113;45.624;11.700;2024-01-16T09:15:34;9.60;53.20
63013;DHT22;62113;45.624;11.700;2024-01-16T09:18:00;9.70;53.10
63013;DHT22;62113;45.624;11.700;2024-01-16T09:20:25;9.70;52.00
63013;DHT22;62113;45.624;11.700;2024-01-16T09:22:51;9.60;52.50
63013;DHT22;62113;45.624;11.700;2024-01-16T09:25:17;9.60;52.90
63013;DHT22;62113;45.624;11.700;2024-01-16T09:27:42;9.60;52.90
63013;DHT22;62113;45.624;11.700;2024-01-16T09:30:08;9.60;52.60
63013;DHT22;62113;45.624;11.700;2024-01-16T09:32:33;9.60;53.50
63013;DHT22;62113;45.624;11.700;2024-01-16T09:35:01;9.60;53.10
63013;DHT22;62113;45.624;11.700;2024-01-16T09:37:28;9.60;53.40
63013;DHT22;62113;45.624;11.700;2024-01-16T09:39:54;9.70;53.50
63013;DHT22;62113;45.624;11.700;2024-01-16T09:42:19;9.80;53.80
63013;DHT22;62113;45.624;11.700;2024-01-16T09:44:46;10.00;54.10
63013;DHT22;62113;45.624;11.700;2024-01-16T09:47:13;10.20;54.60
63013;DHT22;62113;45.624;11.700;2024-01-16T09:49:38;10.50;54.90
63013;DHT22;62113;45.624;11.700;2024-01-16T09:52:04;10.70;56.10
63013;DHT22;62113;45.624;11.700;2024-01-16T09:54:30;10.90;53.40
63013;DHT22;62113;45.624;11.700;2024-01-16T09:56:57;11.00;51.80
63013;DHT22;62113;45.624;11.700;2024-01-16T09:59:23;11.20;55.40
63013;DHT22;62113;45.624;11.700;2024-01-16T10:01:49;11.40;52.80
63013;DHT22;62113;45.624;11.700;2024-01-16T10:04:16;11.50;51.00
63013;DHT22;62113;45.624;11.700;2024-01-16T10:06:42;11.40;47.30
63013;DHT22;62113;45.624;11.700;2024-01-16T10:09:10;11.50;48.90
63013;DHT22;62113;45.624;11.700;2024-01-16T10:11:37;11.40;45.60
63013;DHT22;62113;45.624;11.700;2024-01-16T10:14:03;11.50;48.80
63013;DHT22;62113;45.624;11.700;2024-01-16T10:19:12;11.20;44.50
63013;DHT22;62113;45.624;11.700;2024-01-16T10:21:38;11.10;46.10
63013;DHT22;62113;45.624;11.700;2024-01-16T10:24:10;11.00;47.00
63013;DHT22;62113;45.624;11.700;2024-01-16T10:26:36;10.90;46.80
63013;DHT22;62113;45.624;11.700;2024-01-16T10:29:03;10.80;47.00
63013;DHT22;62113;45.624;11.700;2024-01-16T10:31:29;10.80;47.60
63013;DHT22;62113;45.624;11.700;2024-01-16T10:33:55;10.90;47.30
63013;DHT22;62113;45.624;11.700;2024-01-16T10:36:20;11.00;48.20
63013;DHT22;62113;45.624;11.700;2024-01-16T10:38:47;11.10;48.50
63013;DHT22;62113;45.624;11.700;2024-01-16T10:41:13;11.20;47.80
63013;DHT22;62113;45.624;11.700;2024-01-16T10:43:39;11.30;48.00
63013;DHT22;62113;45.624;11.700;2024-01-16T10:46:09;11.40;48.60
63013;DHT22;62113;45.624;11.700;2024-01-16T10:48:35;11.70;48.10
63013;DHT22;62113;45.624;11.700;2024-01-16T10:51:01;11.70;47.00
63013;DHT22;62113;45.624;11.700;2024-01-16T10:53:28;11.70;46.90
63013;DHT22;62113;45.624;11.700;2024-01-16T10:55:57;11.60;44.30
63013;DHT22;62113;45.624;11.700;2024-01-16T10:58:23;11.50;46.00
63013;DHT22;62113;45.624;11.700;2024-01-16T11:00:50;11.40;46.10
63013;DHT22;62113;45.624;11.700;2024-01-16T11:03:18;11.40;46.10
63013;DHT22;62113;45.624;11.700;2024-01-16T11:05:44;11.30;45.60
63013;DHT22;62113;45.624;11.700;2024-01-16T11:08:09;11.30;46.50
63013;DHT22;62113;45.624;11.700;2024-01-16T11:10:38;11.40;46.70
63013;DHT22;62113;45.624;11.700;2024-01-16T11:13:04;11.40;44.60
63013;DHT22;62113;45.624;11.700;2024-01-16T11:15:30;11.40;44.50
63013;DHT22;62113;45.624;11.700;2024-01-16T11:17:56;11.40;44.80
63013;DHT22;62113;45.624;11.700;2024-01-16T11:20:23;11.40;45.40
63013;DHT22;62113;45.624;11.700;2024-01-16T11:22:48;11.20;44.20
63013;DHT22;62113;45.624;11.700;2024-01-16T11:25:15;11.20;44.70
63013;DHT22;62113;45.624;11.700;2024-01-16T11:27:41;11.20;45.90
63013;DHT22;62113;45.624;11.700;2024-01-16T11:30:08;11.20;46.00
63013;DHT22;62113;45.624;11.700;2024-01-16T11:32:35;11.10;44.70
63013;DHT22;62113;45.624;11.700;2024-01-16T11:35:01;11.10;44.70
63013;DHT22;62113;45.624;11.700;2024-01-16T11:37:27;11.20;46.00
63013;DHT22;62113;45.624;11.700;2024-01-16T11:40:11;11.20;44.80
63013;DHT22;62113;45.624;11.700;2024-01-16T11:42:39;11.20;44.90
63013;DHT22;62113;45.624;11.700;2024-01-16T11:45:08;11.20;43.20
63013;DHT22;62113;45.624;11.700;2024-01-16T11:48:10;11.40;45.10
63013;DHT22;62113;45.624;11.700;2024-01-16T11:50:35;11.60;45.80
63013;DHT22;62113;45.624;11.700;2024-01-16T11:53:01;11.80;45.50
63013;DHT22;62113;45.624;11.700;2024-01-16T11:55:27;11.90;44.90
63013;DHT22;62113;45.624;11.700;2024-01-16T11:57:59;12.00;44.80
63013;DHT22;62113;45.624;11.700;2024-01-16T12:00:28;12.20;45.50
63013;DHT22;62113;45.624;11.700;2024-01-16T12:02:58;12.20;45.30
63013;DHT22;62113;45.624;11.700;2024-01-16T12:05:26;12.30;42.90
63013;DHT22;62113;45.624;11.700;2024-01-16T12:07:52;12.40;44.70
63013;DHT22;62113;45.624;11.700;2024-01-16T12:10:19;12.50;44.70
63013;DHT22;62113;45.624;11.700;2024-01-16T12:12:46;12.60;44.70
63013;DHT22;62113;45.624;11.700;2024-01-16T12:15:18;12.70;44.60
63013;DHT22;62113;45.624;11.700;2024-01-16T12:20:19;12.60;40.60
63013;DHT22;62113;45.624;11.700;2024-01-16T12:22:45;12.60;40.90
63013;DHT22;62113;45.624;11.700;2024-01-16T12:25:10;12.40;40.10
63013;DHT22;62113;45.624;11.700;2024-01-16T12:27:37;12.40;39.90
63013;DHT22;62113;45.624;11.700;2024-01-16T12:30:09;12.30;40.00
63013;DHT22;62113;45.624;11.700;2024-01-16T12:32:34;12.20;40.50
63013;DHT22;62113;45.624;11.700;2024-01-16T12:35:00;12.20;39.40
63013;DHT22;62113;45.624;11.700;2024-01-16T12:37:25;12.30;40.70
63013;DHT22;62113;45.624;11.700;2024-01-16T12:39:52;12.20;39.50
63013;DHT22;62113;45.624;11.700;2024-01-16T12:42:17;12.20;40.30
63013;DHT22;62113;45.624;11.700;2024-01-16T12:44:43;12.30;40.60
63013;DHT22;62113;45.624;11.700;2024-01-16T12:47:09;12.30;40.40
63013;DHT22;62113;45.624;11.700;2024-01-16T12:49:41;12.40;41.30
63013;DHT22;62113;45.624;11.700;2024-01-16T12:52:19;12.50;41.60
63013;DHT22;62113;45.624;11.700;2024-01-16T12:54:48;12.60;39.30
63013;DHT22;62113;45.624;11.700;2024-01-16T12:57:18;12.60;38.30
63013;DHT22;62113;45.624;11.700;2024-01-16T12:59:45;12.60;38.50
63013;DHT22;62113;45.624;11.700;2024-01-16T13:02:18;12.60;37.30
63013;DHT22;62113;45.624;11.700;2024-01-16T13:04:44;12.60;38.60
63013;DHT22;62113;45.624;11.700;2024-01-16T13:07:09;12.50;38.80
63013;DHT22;62113;45.624;11.700;2024-01-16T13:09:35;12.50;38.60
63013;DHT22;62113;45.624;11.700;2024-01-16T13:12:00;12.40;38.90
63013;DHT22;62113;45.624;11.700;2024-01-16T13:14:26;12.40;37.00
63013;DHT22;62113;45.624;11.700;2024-01-16T13:16:52;12.30;38.30
63013;DHT22;62113;45.624;11.700;2024-01-16T13:19:20;12.20;37.10
63013;DHT22;62113;45.624;11.700;2024-01-16T13:21:46;12.10;38.10
63013;DHT22;62113;45.624;11.700;2024-01-16T13:24:12;12.00;37.60
63013;DHT22;62113;45.624;11.700;2024-01-16T13:26:42;12.00;38.10
63013;DHT22;62113;45.624;11.700;2024-01-16T13:29:08;12.00;39.50
63013;DHT22;62113;45.624;11.700;2024-01-16T13:31:34;11.90;40.20
63013;DHT22;62113;45.624;11.700;2024-01-16T13:34:00;12.00;39.90
63013;DHT22;62113;45.624;11.700;2024-01-16T13:36:25;11.90;39.80
63013;DHT22;62113;45.624;11.700;2024-01-16T13:38:51;11.90;40.00
63013;DHT22;62113;45.624;11.700;2024-01-16T13:41:17;11.90;40.50
63013;DHT22;62113;45.624;11.700;2024-01-16T13:43:42;11.80;40.90
63013;DHT22;62113;45.624;11.700;2024-01-16T13:46:08;11.80;41.20
63013;DHT22;62113;45.624;11.700;2024-01-16T13:48:36;11.90;41.20
63013;DHT22;62113;45.624;11.700;2024-01-16T13:51:02;11.90;41.30
63013;DHT22;62113;45.624;11.700;2024-01-16T13:53:29;11.90;41.60
63013;DHT22;62113;45.624;11.700;2024-01-16T13:55:55;11.80;41.70
63013;DHT22;62113;45.624;11.700;2024-01-16T13:58:20;11.90;41.90
63013;DHT22;62113;45.624;11.700;2024-01-16T14:00:46;11.90;42.20
63013;DHT22;62113;45.624;11.700;2024-01-16T14:03:11;11.90;42.30
63013;DHT22;62113;45.624;11.700;2024-01-16T14:05:37;11.90;42.90
63013;DHT22;62113;45.624;11.700;2024-01-16T14:08:05;11.90;43.10
63013;DHT22;62113;45.624;11.700;2024-01-16T14:10:31;12.00;43.40
63013;DHT22;62113;45.624;11.700;2024-01-16T14:12:56;12.00;43.70
63013;DHT22;62113;45.624;11.700;2024-01-16T14:15:22;12.10;44.10
63013;DHT22;62113;45.624;11.700;2024-01-16T14:17:49;12.10;43.50
63013;DHT22;62113;45.624;11.700;2024-01-16T14:20:16;12.20;42.90
63013;DHT22;62113;45.624;11.700;2024-01-16T14:22:42;12.20;43.40
63013;DHT22;62113;45.624;11.700;2024-01-16T14:25:09;12.20;43.40
63013;DHT22;62113;45.624;11.700;2024-01-16T14:27:41;12.20;41.40
63013;DHT22;62113;45.624;11.700;2024-01-16T14:30:07;12.20;42.10
63013;DHT22;62113;45.624;11.700;2024-01-16T14:32:44;12.20;42.40
63013;DHT22;62113;45.624;11.700;2024-01-16T14:35:11;12.20;42.40
63013;DHT22;62113;45.624;11.700;2024-01-16T14:37:37;12.10;41.80
63013;DHT22;62113;45.624;11.700;2024-01-16T14:40:03;12.00;41.10
63013;DHT22;62113;45.624;11.700;2024-01-16T14:42:32;12.00;42.50
63013;DHT22;62113;45.624;11.700;2024-01-16T14:44:59;11.90;41.70
63013;DHT22;62113;45.624;11.700;2024-01-16T14:47:25;11.90;42.00
63013;DHT22;62113;45.624;11.700;2024-01-16T14:49:50;11.90;42.60
63013;DHT22;62113;45.624;11.700;2024-01-16T14:52:16;11.90;43.00
63013;DHT22;62113;45.624;11.700;2024-01-16T14:54:43;11.90;43.10
63013;DHT22;62113;45.624;11.700;2024-01-16T14:57:08;11.80;41.90
63013;DHT22;62113;45.624;11.700;2024-01-16T14:59:35;11.80;42.50
63013;DHT22;62113;45.624;11.700;2024-01-16T15:02:00;11.80;42.70
63013;DHT22;62113;45.624;11.700;2024-01-16T15:04:41;11.70;41.90
63013;DHT22;62113;45.624;11.700;2024-01-16T15:07:06;11.60;42.90
63013;DHT22;62113;45.624;11.700;2024-01-16T15:09:33;11.60;43.10
63013;DHT22;62113;45.624;11.700;2024-01-16T15:12:03;11.60;43.20
63013;DHT22;62113;45.624;11.700;2024-01-16T15:14:29;11.50;43.10
63013;DHT22;62113;45.624;11.700;2024-01-16T15:16:54;11.50;43.50
63013;DHT22;62113;45.624;11.700;2024-01-16T15:19:20;11.40;43.10
63013;DHT22;62113;45.624;11.700;2024-01-16T15:21:46;11.40;43.20
63013;DHT22;62113;45.624;11.700;2024-01-16T15:24:12;11.30;43.30